createdAt,value
2022-10-30T00:02:21.773Z,100.00
2022-10-30T00:04:48.463Z,100.00
2022-10-30T00:07:15.001Z,100.00
2022-10-30T00:09:41.545Z,100.00
2022-10-30T00:12:08.183Z,100.00
2022-10-30T00:14:34.726Z,100.00
2022-10-30T00:17:01.142Z,100.00
2022-10-30T00:19:27.811Z,100.00
2022-10-30T00:21:54.243Z,100.00
2022-10-30T00:24:20.683Z,100.00
2022-10-30T00:26:47.148Z,100.00
2022-10-30T00:29:13.588Z,100.00
2022-10-30T00:31:40.114Z,100.00
2022-10-30T00:34:06.637Z,100.00
2022-10-30T00:36:33.112Z,100.00
2022-10-30T00:38:59.644Z,100.00
2022-10-30T00:41:26.161Z,100.00
2022-10-30T00:43:53.252Z,100.00
2022-10-30T00:46:39.717Z,100.00
2022-10-30T00:49:12.553Z,100.00
2022-10-30T00:51:46.353Z,100.00
2022-10-30T00:54:16.397Z,100.00
2022-10-30T00:56:44.721Z,100.00
2022-10-30T00:59:17.025Z,100.00
2022-10-30T01:01:46.379Z,100.00
2022-10-30T01:04:14.392Z,100.00
2022-10-30T01:06:45.042Z,100.00
2022-10-30T01:09:11.573Z,100.00
2022-10-30T01:11:38.086Z,100.00
2022-10-30T01:14:07.284Z,100.00
2022-10-30T01:16:50.619Z,100.00
2022-10-30T01:19:52.678Z,100.00
2022-10-30T01:22:26.469Z,100.00
2022-10-30T01:25:11.783Z,100.00
2022-10-30T01:28:16.418Z,100.00
2022-10-30T01:30:58.320Z,100.00
2022-10-30T01:33:46.675Z,100.00
2022-10-30T01:36:22.430Z,100.00
2022-10-30T01:39:00.032Z,100.00
2022-10-30T01:41:26.965Z,100.00
2022-10-30T01:43:58.540Z,100.00
2022-10-30T01:46:30.913Z,100.00
2022-10-30T01:49:38.538Z,100.00
2022-10-30T01:52:26.161Z,100.00
2022-10-30T01:55:20.867Z,100.00
2022-10-30T01:58:15.667Z,100.00
2022-10-30T02:00:45.494Z,100.00
2022-10-30T02:03:12.753Z,100.00
2022-10-30T02:05:44.089Z,100.00
2022-10-30T02:08:10.732Z,100.00
2022-10-30T02:10:38.403Z,100.00
2022-10-30T02:13:05.688Z,100.00
2022-10-30T02:15:32.901Z,100.00
2022-10-30T02:18:00.013Z,100.00
2022-10-30T02:20:27.107Z,100.00
2022-10-30T02:22:58.022Z,100.00
2022-10-30T02:25:25.926Z,100.00
2022-10-30T02:27:52.670Z,100.00
2022-10-30T02:30:19.311Z,100.00
2022-10-30T02:32:45.975Z,100.00
2022-10-30T02:35:12.545Z,100.00
2022-10-30T02:37:39.231Z,100.00
2022-10-30T02:40:06.778Z,100.00
2022-10-30T02:42:33.335Z,100.00
2022-10-30T02:44:59.735Z,100.00
2022-10-30T02:47:26.517Z,100.00
2022-10-30T02:49:52.979Z,100.00
2022-10-30T02:52:19.450Z,100.00
2022-10-30T02:54:45.933Z,100.00
2022-10-30T02:57:12.471Z,100.00
2022-10-30T02:59:39.018Z,100.00
2022-10-30T03:02:05.517Z,100.00
2022-10-30T03:04:32.082Z,100.00
2022-10-30T03:06:58.630Z,100.00
2022-10-30T03:09:25.177Z,100.00
2022-10-30T03:11:51.709Z,100.00
2022-10-30T03:14:18.250Z,100.00
2022-10-30T03:16:44.787Z,100.00
2022-10-30T03:19:11.335Z,100.00
2022-10-30T03:21:39.685Z,100.00
2022-10-30T03:24:06.353Z,100.00
2022-10-30T03:26:32.818Z,100.00
2022-10-30T03:28:59.346Z,100.00
2022-10-30T03:31:25.978Z,100.00
2022-10-30T03:33:52.519Z,100.00
2022-10-30T03:36:18.954Z,100.00
2022-10-30T03:38:45.413Z,100.00
2022-10-30T03:41:11.870Z,100.00
2022-10-30T03:43:38.380Z,100.00
2022-10-30T03:46:05.018Z,100.00
2022-10-30T03:48:31.477Z,100.00
2022-10-30T03:50:59.633Z,100.00
2022-10-30T03:53:27.618Z,100.00
2022-10-30T03:55:58.656Z,100.00
2022-10-30T03:58:25.916Z,100.00
2022-10-30T04:00:52.645Z,100.00
2022-10-30T04:03:19.284Z,100.00
2022-10-30T04:05:45.923Z,100.00
2022-10-30T04:08:14.399Z,100.00
2022-10-30T04:10:46.441Z,100.00
2022-10-30T04:13:15.884Z,100.00
2022-10-30T04:15:43.040Z,100.00
2022-10-30T04:18:11.985Z,100.00
2022-10-30T04:20:39.009Z,100.00
2022-10-30T04:23:07.532Z,100.00
2022-10-30T04:25:35.536Z,100.00
2022-10-30T04:28:03.008Z,100.00
2022-10-30T04:30:29.957Z,100.00
2022-10-30T04:32:58.018Z,100.00
2022-10-30T04:35:26.939Z,100.00
2022-10-30T04:37:55.550Z,100.00
2022-10-30T04:40:24.275Z,100.00
2022-10-30T04:42:51.750Z,100.00
2022-10-30T04:45:18.824Z,100.00
2022-10-30T04:47:46.125Z,100.00
2022-10-30T04:50:13.967Z,100.00
2022-10-30T04:52:41.122Z,100.00
2022-10-30T04:55:09.837Z,100.00
2022-10-30T04:57:37.159Z,100.00
2022-10-30T05:00:08.252Z,100.00
2022-10-30T05:02:36.251Z,100.00
2022-10-30T05:05:04.251Z,100.00
2022-10-30T05:07:30.997Z,100.00
2022-10-30T05:09:57.536Z,100.00
2022-10-30T05:12:24.073Z,100.00
2022-10-30T05:14:50.613Z,100.00
2022-10-30T05:17:17.207Z,100.00
2022-10-30T05:19:43.748Z,100.00
2022-10-30T05:22:10.235Z,100.00
2022-10-30T05:24:36.701Z,100.00
2022-10-30T05:27:03.212Z,100.00
2022-10-30T05:29:29.750Z,100.00
2022-10-30T05:31:56.291Z,100.00
2022-10-30T05:34:22.830Z,100.00
2022-10-30T05:36:49.303Z,100.00
2022-10-30T05:39:15.805Z,100.00
2022-10-30T05:41:42.234Z,100.00
2022-10-30T05:44:08.675Z,100.00
2022-10-30T05:46:35.313Z,100.00
2022-10-30T05:49:01.855Z,100.00
2022-10-30T05:51:28.265Z,100.00
2022-10-30T05:53:54.840Z,100.00
2022-10-30T05:56:21.376Z,100.00
2022-10-30T05:58:51.086Z,100.00
2022-10-30T06:01:17.874Z,100.00
2022-10-30T06:03:45.087Z,100.00
2022-10-30T06:06:12.139Z,100.00
2022-10-30T06:08:38.930Z,100.00
2022-10-30T06:11:05.398Z,100.00
2022-10-30T06:13:31.971Z,100.00
2022-10-30T06:15:58.500Z,100.00
2022-10-30T06:18:25.043Z,100.00
2022-10-30T06:20:51.582Z,100.00
2022-10-30T06:23:18.225Z,100.00
2022-10-30T06:25:44.675Z,100.00
2022-10-30T06:28:11.622Z,100.00
2022-10-30T06:30:38.237Z,100.00
2022-10-30T06:33:06.235Z,100.00
2022-10-30T06:35:32.875Z,100.00
2022-10-30T06:37:59.672Z,100.00
2022-10-30T06:40:27.703Z,100.00
2022-10-30T06:42:54.448Z,100.00
2022-10-30T06:45:23.439Z,100.00
2022-10-30T06:47:50.494Z,100.00
2022-10-30T06:50:20.336Z,100.00
2022-10-30T06:52:46.856Z,100.00
2022-10-30T06:55:13.388Z,100.00
2022-10-30T06:57:40.035Z,100.00
2022-10-30T07:00:07.904Z,100.00
2022-10-30T07:02:35.059Z,100.00
2022-10-30T07:05:01.569Z,100.00
2022-10-30T07:07:28.751Z,100.00
2022-10-30T07:09:55.294Z,100.00
2022-10-30T07:12:21.724Z,100.00
2022-10-30T07:14:48.170Z,100.00
2022-10-30T07:17:14.706Z,100.00
2022-10-30T07:19:41.250Z,100.00
2022-10-30T07:22:07.697Z,100.00
2022-10-30T07:24:34.226Z,100.00
2022-10-30T07:27:00.670Z,100.00
2022-10-30T07:29:27.206Z,100.00
2022-10-30T07:32:08.322Z,100.00
2022-10-30T07:34:35.033Z,100.00
2022-10-30T07:37:01.625Z,100.00
2022-10-30T07:39:28.103Z,100.00
2022-10-30T07:41:54.661Z,100.00
2022-10-30T07:44:21.083Z,100.00
2022-10-30T07:46:47.828Z,100.00
2022-10-30T07:49:14.478Z,100.00
2022-10-30T07:51:41.010Z,100.00
2022-10-30T07:54:07.551Z,100.00
2022-10-30T07:56:34.097Z,100.00
2022-10-30T07:59:00.636Z,100.00
2022-10-30T08:01:27.180Z,100.00
2022-10-30T08:03:53.818Z,100.00
2022-10-30T08:06:23.218Z,100.00
2022-10-30T08:08:53.144Z,100.00
2022-10-30T08:11:19.690Z,100.00
2022-10-30T08:13:46.425Z,100.00
2022-10-30T08:16:12.877Z,100.00
2022-10-30T08:18:39.414Z,100.00
2022-10-30T08:21:06.051Z,100.00
2022-10-30T08:23:32.472Z,100.00
2022-10-30T08:25:59.027Z,100.00
2022-10-30T08:28:29.897Z,100.00
2022-10-30T08:31:00.721Z,100.00
2022-10-30T08:33:27.170Z,100.00
2022-10-30T08:35:56.272Z,100.00
2022-10-30T08:38:23.020Z,100.00
2022-10-30T08:40:49.499Z,100.00
2022-10-30T08:43:16.685Z,100.00
2022-10-30T08:45:43.638Z,100.00
2022-10-30T08:48:12.355Z,100.00
2022-10-30T08:50:38.868Z,100.00
2022-10-30T08:53:07.385Z,100.00
2022-10-30T08:55:34.934Z,100.00
2022-10-30T08:58:02.121Z,100.00
2022-10-30T09:00:29.913Z,100.00
2022-10-30T09:02:57.022Z,100.00
2022-10-30T09:05:24.048Z,100.00
2022-10-30T09:07:56.719Z,100.00
2022-10-30T09:10:23.943Z,100.00
2022-10-30T09:12:58.308Z,100.00
2022-10-30T09:15:26.132Z,100.00
2022-10-30T09:18:03.252Z,100.00
2022-10-30T09:20:31.045Z,100.00
2022-10-30T09:22:58.391Z,100.00
2022-10-30T09:25:25.459Z,100.00
2022-10-30T09:27:51.898Z,100.00
2022-10-30T09:30:18.437Z,100.00
2022-10-30T09:32:44.979Z,100.00
2022-10-30T09:35:11.623Z,100.00
2022-10-30T09:37:39.470Z,100.00
2022-10-30T09:40:07.882Z,100.00
2022-10-30T09:42:42.437Z,100.00
2022-10-30T09:45:29.792Z,100.00
2022-10-30T09:48:22.283Z,100.00
2022-10-30T09:50:51.587Z,100.00
2022-10-30T09:53:33.833Z,100.00
2022-10-30T09:56:34.430Z,100.00
2022-10-30T09:59:17.765Z,100.00
2022-10-30T10:01:52.603Z,100.00
2022-10-30T10:04:31.228Z,100.00
2022-10-30T10:07:07.600Z,100.00
2022-10-30T10:09:36.322Z,100.00
2022-10-30T10:12:08.057Z,100.00
2022-10-30T10:14:39.665Z,100.00
2022-10-30T10:17:13.835Z,100.00
2022-10-30T10:19:57.507Z,100.00
2022-10-30T10:22:39.496Z,100.00
2022-10-30T10:25:12.666Z,100.00
2022-10-30T10:27:57.538Z,100.00
2022-10-30T10:30:26.648Z,100.00
2022-10-30T10:33:15.103Z,100.00
2022-10-30T10:36:00.074Z,100.00
2022-10-30T10:38:50.354Z,100.00
2022-10-30T10:41:25.501Z,100.00
2022-10-30T10:44:10.664Z,100.00
2022-10-30T10:47:09.393Z,100.00
2022-10-30T10:50:23.736Z,100.00
2022-10-30T10:52:57.893Z,100.00
2022-10-30T10:55:35.385Z,100.00
2022-10-30T10:58:13.152Z,100.00
2022-10-30T11:00:41.003Z,100.00
2022-10-30T11:06:18.189Z,100.00
2022-10-30T11:08:45.137Z,100.00
2022-10-30T11:11:11.745Z,100.00
2022-10-30T11:13:41.350Z,100.00
2022-10-30T11:16:30.521Z,100.00
2022-10-30T11:19:03.722Z,100.00
2022-10-30T11:21:42.019Z,100.00
2022-10-30T11:24:31.707Z,100.00
2022-10-30T11:27:16.161Z,100.00
2022-10-30T11:29:49.284Z,100.00
2022-10-30T11:32:20.296Z,100.00
2022-10-30T11:34:46.960Z,100.00
2022-10-30T11:37:33.225Z,100.00
2022-10-30T11:40:08.299Z,100.00
2022-10-30T11:42:36.235Z,100.00
2022-10-30T11:45:04.739Z,100.00
2022-10-30T11:47:37.633Z,100.00
2022-10-30T11:50:26.210Z,100.00
2022-10-30T11:52:57.729Z,100.00
2022-10-30T11:55:34.721Z,100.00
2022-10-30T11:58:02.252Z,100.00
2022-10-30T12:00:32.921Z,100.00
2022-10-30T12:03:01.241Z,100.00
2022-10-30T12:05:38.456Z,100.00
2022-10-30T12:08:07.702Z,100.00
2022-10-30T12:10:41.167Z,100.00
2022-10-30T12:13:16.037Z,100.00
2022-10-30T12:15:44.644Z,100.00
2022-10-30T12:20:58.689Z,65.59
2022-10-30T12:23:27.583Z,63.70
2022-10-30T12:26:11.698Z,62.04
2022-10-30T12:28:39.503Z,61.87
2022-10-30T12:31:12.878Z,63.27
2022-10-30T12:33:51.017Z,63.24
2022-10-30T12:36:21.683Z,62.47
2022-10-30T12:38:48.086Z,60.76
2022-10-30T12:41:43.611Z,60.20
2022-10-30T12:44:29.365Z,60.49
2022-10-30T12:47:27.174Z,60.46
2022-10-30T12:50:18.646Z,60.00
2022-10-30T12:53:06.166Z,60.29
2022-10-30T12:55:48.024Z,60.17
2022-10-30T12:58:19.832Z,60.55
2022-10-30T13:00:54.735Z,60.30
2022-10-30T13:03:32.769Z,60.54
2022-10-30T13:06:08.383Z,59.49
2022-10-30T13:08:39.888Z,59.80
2022-10-30T13:11:25.321Z,59.08
2022-10-30T13:13:55.352Z,59.86
2022-10-30T13:16:32.228Z,59.31
2022-10-30T13:19:03.184Z,60.45
2022-10-30T13:21:56.230Z,60.56
2022-10-30T13:24:57.904Z,60.04
2022-10-30T13:27:51.775Z,60.36
2022-10-30T13:30:23.385Z,60.08
2022-10-30T13:33:20.305Z,59.95
2022-10-30T13:36:01.930Z,59.73
2022-10-30T13:38:46.818Z,59.89
2022-10-30T13:41:40.997Z,60.42
2022-10-30T13:44:16.536Z,60.13
2022-10-30T13:47:03.200Z,60.03
2022-10-30T13:49:41.722Z,60.10
2022-10-30T13:52:16.660Z,59.98
2022-10-30T13:55:19.351Z,59.25
2022-10-30T13:57:56.540Z,58.90
2022-10-30T14:00:45.575Z,58.78
2022-10-30T14:03:22.627Z,58.87
2022-10-30T14:05:54.048Z,58.55
2022-10-30T14:08:25.842Z,58.30
2022-10-30T14:10:59.350Z,58.75
2022-10-30T14:13:44.076Z,58.08
2022-10-30T14:16:36.523Z,58.57
2022-10-30T14:19:04.390Z,58.61
2022-10-30T14:21:44.696Z,58.85
2022-10-30T14:24:29.496Z,57.80
2022-10-30T14:27:05.485Z,57.46
2022-10-30T14:29:34.858Z,57.76
2022-10-30T14:32:02.095Z,57.35
2022-10-30T14:35:01.249Z,57.14
2022-10-30T14:37:27.687Z,57.64
2022-10-30T14:39:55.762Z,58.04
2022-10-30T14:42:51.183Z,58.10
2022-10-30T14:45:29.498Z,58.30
2022-10-30T14:48:27.272Z,58.79
2022-10-30T14:51:12.553Z,59.18
2022-10-30T14:53:52.094Z,59.41
2022-10-30T14:56:29.694Z,59.59
2022-10-30T14:59:09.837Z,59.86
2022-10-30T15:01:45.486Z,60.09
2022-10-30T15:04:18.392Z,60.34
2022-10-30T15:07:13.067Z,60.50
2022-10-30T15:10:03.022Z,60.82
2022-10-30T15:13:03.359Z,61.08
2022-10-30T15:15:30.674Z,61.48
2022-10-30T15:18:01.468Z,61.60
2022-10-30T15:20:32.146Z,61.88
2022-10-30T15:23:03.030Z,62.37
2022-10-30T15:25:34.583Z,63.12
2022-10-30T15:28:01.449Z,64.02
2022-10-30T15:30:28.466Z,63.66
2022-10-30T15:32:55.196Z,64.72
2022-10-30T15:35:27.355Z,64.98
2022-10-30T15:38:07.767Z,65.63
2022-10-30T15:40:36.327Z,65.36
2022-10-30T15:43:05.389Z,65.80
2022-10-30T15:45:37.338Z,65.66
2022-10-30T15:48:19.446Z,65.94
2022-10-30T15:51:00.893Z,66.14
2022-10-30T15:53:36.461Z,66.69
2022-10-30T15:56:04.584Z,67.33
2022-10-30T15:58:34.960Z,67.85
2022-10-30T16:01:02.257Z,69.77
2022-10-30T16:03:29.878Z,72.39
2022-10-30T16:06:15.369Z,73.80
2022-10-30T16:08:48.147Z,72.09
2022-10-30T16:11:15.824Z,72.29
2022-10-30T16:13:42.774Z,71.21
2022-10-30T16:16:17.435Z,71.36
2022-10-30T16:18:44.260Z,72.57
2022-10-30T16:21:15.928Z,72.59
2022-10-30T16:23:52.171Z,73.29
2022-10-30T16:26:27.620Z,73.31
2022-10-30T16:28:54.161Z,73.43
2022-10-30T16:31:21.020Z,73.46
2022-10-30T16:33:48.772Z,73.67
2022-10-30T16:36:17.771Z,74.28
2022-10-30T16:38:47.488Z,74.74
2022-10-30T16:41:14.666Z,75.27
2022-10-30T16:43:43.478Z,75.44
2022-10-30T16:46:16.131Z,75.82
2022-10-30T16:48:57.980Z,76.11
2022-10-30T16:51:24.774Z,77.11
2022-10-30T16:53:52.947Z,79.14
2022-10-30T16:56:24.299Z,81.64
2022-10-30T16:58:53.426Z,80.31
2022-10-30T17:01:26.123Z,79.59
2022-10-30T17:03:54.376Z,79.72
2022-10-30T17:06:42.435Z,83.44
2022-10-30T17:09:19.803Z,83.81
2022-10-30T17:12:00.483Z,83.30
2022-10-30T17:14:27.013Z,82.79
2022-10-30T17:16:56.118Z,82.42
2022-10-30T17:19:32.014Z,82.66
2022-10-30T17:22:02.215Z,82.92
2022-10-30T17:24:33.147Z,83.20
2022-10-30T17:27:02.349Z,83.59
2022-10-30T17:29:38.146Z,83.68
2022-10-30T17:32:06.597Z,83.94
2022-10-30T17:34:39.040Z,86.01
2022-10-30T17:37:05.458Z,92.60
2022-10-30T17:39:31.914Z,99.75
2022-10-30T17:41:58.382Z,97.12
2022-10-30T17:44:26.265Z,97.42
2022-10-30T17:46:53.003Z,99.75
2022-10-30T17:49:26.745Z,99.05
2022-10-30T17:51:53.590Z,96.85
2022-10-30T17:54:20.919Z,95.81
2022-10-30T17:56:47.669Z,96.91
2022-10-30T17:59:14.714Z,98.38
2022-10-30T18:01:41.852Z,97.77
2022-10-30T18:04:21.324Z,96.88
2022-10-30T18:06:48.724Z,97.34
2022-10-30T18:09:15.259Z,96.75
2022-10-30T18:11:41.864Z,98.74
2022-10-30T18:14:11.310Z,97.78
2022-10-30T18:16:38.737Z,98.86
2022-10-30T18:19:10.554Z,99.12
2022-10-30T18:21:37.240Z,99.67
2022-10-30T18:24:10.498Z,99.79
2022-10-30T18:26:40.448Z,99.98
2022-10-30T18:29:08.752Z,100.00
2022-10-30T18:31:36.408Z,99.66
2022-10-30T18:34:03.583Z,99.69
2022-10-30T18:36:30.318Z,99.57
2022-10-30T18:38:56.853Z,99.59
2022-10-30T18:41:36.632Z,99.76
2022-10-30T18:44:04.109Z,99.94
2022-10-30T18:46:31.623Z,99.82
2022-10-30T18:48:58.268Z,100.00
2022-10-30T18:51:27.094Z,100.00
2022-10-30T18:53:54.229Z,100.00
2022-10-30T18:56:24.397Z,100.00
2022-10-30T18:58:54.925Z,100.00
2022-10-30T19:01:25.877Z,100.00
2022-10-30T19:03:52.967Z,100.00
2022-10-30T19:06:22.281Z,100.00
2022-10-30T19:08:49.257Z,100.00
2022-10-30T19:11:24.028Z,100.00
2022-10-30T19:13:52.557Z,100.00
2022-10-30T19:16:20.500Z,100.00
2022-10-30T19:18:47.561Z,100.00
2022-10-30T19:21:25.531Z,100.00
2022-10-30T19:23:52.832Z,100.00
2022-10-30T19:26:19.320Z,100.00
2022-10-30T19:28:46.121Z,100.00
2022-10-30T19:31:18.702Z,100.00
2022-10-30T19:33:46.469Z,100.00
2022-10-30T19:36:30.522Z,100.00
2022-10-30T19:38:57.522Z,100.00
2022-10-30T19:41:24.232Z,100.00
2022-10-30T19:43:50.891Z,100.00
2022-10-30T19:46:17.501Z,100.00
2022-10-30T19:49:00.124Z,100.00
2022-10-30T19:51:28.684Z,100.00
2022-10-30T19:53:55.451Z,100.00
2022-10-30T19:56:22.423Z,100.00
2022-10-30T19:58:49.760Z,100.00
2022-10-30T20:01:17.090Z,100.00
2022-10-30T20:03:43.993Z,100.00
2022-10-30T20:06:14.978Z,100.00
2022-10-30T20:08:41.772Z,100.00
2022-10-30T20:11:08.820Z,100.00
2022-10-30T20:13:35.808Z,100.00
2022-10-30T20:16:02.742Z,100.00
2022-10-30T20:18:31.885Z,100.00
2022-10-30T20:21:01.667Z,100.00
2022-10-30T20:23:28.896Z,100.00
2022-10-30T20:26:00.836Z,100.00
2022-10-30T20:28:40.380Z,100.00
2022-10-30T20:31:08.489Z,100.00
2022-10-30T20:33:35.225Z,100.00
2022-10-30T20:36:01.885Z,100.00
2022-10-30T20:38:32.504Z,100.00
2022-10-30T20:41:00.996Z,100.00
2022-10-30T20:43:30.398Z,100.00
2022-10-30T20:45:57.790Z,100.00
2022-10-30T20:48:24.700Z,100.00
2022-10-30T20:50:59.986Z,100.00
2022-10-30T20:53:27.150Z,100.00
2022-10-30T20:55:53.746Z,100.00
2022-10-30T20:58:21.429Z,100.00
2022-10-30T21:00:48.214Z,100.00
2022-10-30T21:03:15.109Z,100.00
2022-10-30T21:05:44.779Z,100.00
2022-10-30T21:08:13.040Z,100.00
2022-10-30T21:10:40.163Z,100.00
2022-10-30T21:13:09.477Z,100.00
2022-10-30T21:15:41.616Z,100.00
2022-10-30T21:18:08.968Z,100.00
2022-10-30T21:20:36.371Z,100.00
2022-10-30T21:23:03.008Z,100.00
2022-10-30T21:25:29.619Z,100.00
2022-10-30T21:27:57.119Z,100.00
2022-10-30T21:30:24.073Z,100.00
2022-10-30T21:32:50.610Z,100.00
2022-10-30T21:35:17.350Z,100.00
2022-10-30T21:37:43.893Z,100.00
2022-10-30T21:40:11.048Z,100.00
2022-10-30T21:42:37.492Z,100.00
2022-10-30T21:45:04.846Z,100.00
2022-10-30T21:47:31.386Z,100.00
2022-10-30T21:49:57.930Z,100.00
2022-10-30T21:52:24.474Z,100.00
2022-10-30T21:54:50.962Z,100.00
2022-10-30T21:57:17.448Z,100.00
2022-10-30T21:59:43.940Z,100.00
2022-10-30T22:02:14.672Z,100.00
2022-10-30T22:04:41.194Z,100.00
2022-10-30T22:07:07.920Z,100.00
2022-10-30T22:09:34.555Z,100.00
2022-10-30T22:12:00.984Z,100.00
2022-10-30T22:14:27.550Z,100.00
2022-10-30T22:16:54.054Z,100.00
2022-10-30T22:19:20.527Z,100.00
2022-10-30T22:21:46.959Z,100.00
2022-10-30T22:24:13.444Z,100.00
2022-10-30T22:26:39.940Z,100.00
2022-10-30T22:29:06.396Z,100.00
2022-10-30T22:31:33.037Z,100.00
2022-10-30T22:34:01.103Z,100.00
2022-10-30T22:36:30.194Z,100.00
2022-10-30T22:39:02.093Z,100.00
2022-10-30T22:41:34.523Z,100.00
2022-10-30T22:44:06.046Z,100.00
2022-10-30T22:46:32.540Z,100.00
2022-10-30T22:48:59.713Z,100.00
2022-10-30T22:51:26.640Z,100.00
2022-10-30T22:53:59.741Z,100.00
2022-10-30T22:56:29.448Z,100.00
2022-10-30T22:58:56.341Z,100.00
2022-10-30T23:01:28.692Z,100.00
2022-10-30T23:03:57.296Z,100.00
2022-10-30T23:06:24.419Z,100.00
2022-10-30T23:08:56.380Z,100.00
2022-10-30T23:11:23.956Z,100.00
2022-10-30T23:13:50.493Z,100.00
2022-10-30T23:16:20.418Z,100.00
2022-10-30T23:18:47.828Z,100.00
2022-10-30T23:21:20.786Z,100.00
2022-10-30T23:23:48.120Z,100.00
2022-10-30T23:26:16.028Z,100.00
2022-10-30T23:28:43.055Z,100.00
2022-10-30T23:31:23.616Z,100.00
2022-10-30T23:33:52.938Z,100.00
2022-10-30T23:36:20.809Z,100.00
2022-10-30T23:38:54.943Z,100.00
2022-10-30T23:41:23.399Z,100.00
2022-10-30T23:43:57.105Z,100.00
2022-10-30T23:46:24.266Z,100.00
2022-10-30T23:48:51.314Z,100.00
2022-10-30T23:51:18.609Z,100.00
2022-10-30T23:53:45.117Z,100.00
2022-10-30T23:56:12.169Z,100.00
2022-10-30T23:58:38.890Z,100.00
